Saint Albans Bay — V7BQ8 — position and weather

sailwx.info

Track history (hours):
 
Tides and Currents Weather Stations Pressure Air Temp Water Temp Dewpoint Dewpoint Depression Visibility Wind Speed Wind Dir Waves Ship Positions

Saint Albans Bay

Last reported at 2018-Jun-13 05:44 UTC. Time now 2018-Jun-23 08:06 UTC.
Position S 33°01' E 152°26'.
Warning: this ship's position is 10 days out of date.

Length 183 m; draft 8.9 m.

Type: Tanker. MMSI: 538005189.

Date/timePositionNaut miles runAvg speedWind from/ knotsBaromVisibWave heightAir tempDewpointWater temp
2018-Jun-13 05:44S 33°01' E 152°26'314.4
2018-Jun-13 05:30S 33°01' E 152°22'714.0
2018-Jun-13 05:00S 33°01' E 152°13'713.4
2018-Jun-13 04:30S 33°01' E 152°05'713.7
2018-Jun-13 04:00S 33°01' E 151°57'611.9
2018-Jun-13 03:30S 32°57' E 151°52'4 8.1
2018-Jun-13 03:00S 32°55' E 151°47'2 0.2
2018-Jun-12 14:09S 32°54' E 151°46'0 0.0
2018-Jun-12 13:57S 32°54' E 151°46'0 0.0
2018-Jun-12 13:27S 32°54' E 151°46'0 0.0
2018-Jun-12 12:57S 32°54' E 151°46'0 0.0
2018-Jun-12 12:30S 32°54' E 151°46'0 0.0
2018-Jun-12 12:00S 32°54' E 151°46'0 0.0
2018-Jun-11 11:49S 32°54' E 151°46'0 0.0
2018-Jun-11 11:30S 32°54' E 151°46'0 0.2
2018-Jun-11 11:00S 32°54' E 151°46'2 3.7
2018-Jun-11 10:30S 32°55' E 151°47'4 7.3
2018-Jun-11 10:00S 32°56' E 151°51'4 8.5
2018-Jun-11 09:30S 33°00' E 151°52'2 4.8
2018-Jun-11 09:00S 33°02' E 151°53'1 2.8
2018-Jun-11 08:30S 33°03' E 151°55'1 2.2
2018-Jun-11 08:00S 33°02' E 151°56'1 2.5
2018-Jun-11 07:30S 33°02' E 151°57'3 5.5
2018-Jun-11 07:00S 33°01' E 152°00'611.1
2018-Jun-11 06:30S 32°60' E 152°07'612.7
2018-Jun-11 06:00S 32°58' E 152°14'612.6
2018-Jun-11 05:30S 32°57' E 152°21'612.0
2018-Jun-11 05:00S 32°54' E 152°28'611.5
2018-Jun-11 04:30S 32°52' E 152°34'611.2
2018-Jun-11 04:00S 32°50' E 152°41'611.7
2018-Jun-11 03:30S 32°48' E 152°47'510.8
2018-Jun-11 03:00S 32°44' E 152°51'611.0
2018-Jun-11 02:29S 32°39' E 152°55'  
Track history (hours):
 
Tides and Currents Weather Stations Pressure Air Temp Water Temp Dewpoint Dewpoint Depression Visibility Wind Speed Wind Dir Waves Ship Positions

Saint Albans Bay

Last reported at 2018-Jun-13 05:44 UTC. Time now 2018-Jun-23 08:06 UTC.
Position S 33°01' E 152°26'.
Warning: this ship's position is 10 days out of date.

Length 183 m; draft 8.9 m.

Type: Tanker. MMSI: 538005189.

Date/timePositionNaut miles runAvg speedWind from/ knotsBaromVisibWave heightAir tempDewpointWater temp
2018-Jun-13 05:44S 33°01' E 152°26'314.4
2018-Jun-13 05:30S 33°01' E 152°22'714.0
2018-Jun-13 05:00S 33°01' E 152°13'713.4
2018-Jun-13 04:30S 33°01' E 152°05'713.7
2018-Jun-13 04:00S 33°01' E 151°57'611.9
2018-Jun-13 03:30S 32°57' E 151°52'4 8.1
2018-Jun-13 03:00S 32°55' E 151°47'2 0.2
2018-Jun-12 14:09S 32°54' E 151°46'0 0.0
2018-Jun-12 13:57S 32°54' E 151°46'0 0.0
2018-Jun-12 13:27S 32°54' E 151°46'0 0.0
2018-Jun-12 12:57S 32°54' E 151°46'0 0.0
2018-Jun-12 12:30S 32°54' E 151°46'0 0.0
2018-Jun-12 12:00S 32°54' E 151°46'0 0.0
2018-Jun-11 11:49S 32°54' E 151°46'0 0.0
2018-Jun-11 11:30S 32°54' E 151°46'0 0.2
2018-Jun-11 11:00S 32°54' E 151°46'2 3.7
2018-Jun-11 10:30S 32°55' E 151°47'4 7.3
2018-Jun-11 10:00S 32°56' E 151°51'4 8.5
2018-Jun-11 09:30S 33°00' E 151°52'2 4.8
2018-Jun-11 09:00S 33°02' E 151°53'1 2.8
2018-Jun-11 08:30S 33°03' E 151°55'1 2.2
2018-Jun-11 08:00S 33°02' E 151°56'1 2.5
2018-Jun-11 07:30S 33°02' E 151°57'3 5.5
2018-Jun-11 07:00S 33°01' E 152°00'611.1
2018-Jun-11 06:30S 32°60' E 152°07'612.7
2018-Jun-11 06:00S 32°58' E 152°14'612.6
2018-Jun-11 05:30S 32°57' E 152°21'612.0
2018-Jun-11 05:00S 32°54' E 152°28'611.5
2018-Jun-11 04:30S 32°52' E 152°34'611.2
2018-Jun-11 04:00S 32°50' E 152°41'611.7
2018-Jun-11 03:30S 32°48' E 152°47'510.8
2018-Jun-11 03:00S 32°44' E 152°51'611.0
2018-Jun-11 02:29S 32°39' E 152°55'  

Dump ship's entire track history